createdAt,value
2023-01-29T00:01:04.632Z,103091.88
2023-01-29T00:06:10.664Z,103085.94
2023-01-29T00:11:14.250Z,103078.28
2023-01-29T00:16:19.337Z,103073.09
2023-01-29T00:21:24.066Z,103069.13
2023-01-29T00:26:27.368Z,103060.75
2023-01-29T00:31:30.594Z,103055.69
2023-01-29T00:36:35.483Z,103040.09
2023-01-29T00:41:56.440Z,103044.09
2023-01-29T00:46:59.834Z,103051.69
2023-01-29T00:52:21.638Z,103042.53
2023-01-29T00:57:25.538Z,103052.03
2023-01-29T01:02:47.128Z,103048.66
2023-01-29T01:07:53.013Z,103044.66
2023-01-29T01:12:59.018Z,103025.28
2023-01-29T01:18:03.739Z,103023.88
2023-01-29T01:23:08.224Z,103027.09
2023-01-29T01:28:11.668Z,103034.44
2023-01-29T01:33:14.775Z,103036.72
2023-01-29T01:38:19.136Z,103037.00
2023-01-29T01:43:22.434Z,103039.00
2023-01-29T01:48:27.948Z,103036.41
2023-01-29T01:53:38.700Z,103038.38
2023-01-29T01:58:47.199Z,103058.84
2023-01-29T02:04:15.142Z,103056.25
2023-01-29T02:09:34.496Z,103051.66
2023-01-29T02:14:40.271Z,103048.16
2023-01-29T02:19:50.545Z,103045.56
2023-01-29T02:25:09.956Z,103040.19
2023-01-29T02:30:24.575Z,103027.34
2023-01-29T02:35:33.336Z,103029.78
2023-01-29T02:40:44.024Z,103021.06
2023-01-29T02:45:54.406Z,103025.94
2023-01-29T02:51:01.735Z,103041.06
2023-01-29T02:56:11.377Z,103035.53
2023-01-29T03:01:20.258Z,103042.09
2023-01-29T03:06:28.463Z,103030.00
2023-01-29T03:11:37.705Z,103031.06
2023-01-29T03:16:48.744Z,103038.25
2023-01-29T03:21:59.061Z,103042.63
2023-01-29T03:27:25.773Z,103028.75
2023-01-29T03:32:31.968Z,103014.41
2023-01-29T03:37:38.086Z,103019.47
2023-01-29T03:43:00.729Z,103008.16
2023-01-29T03:48:12.270Z,102993.34
2023-01-29T03:53:22.290Z,102993.19
2023-01-29T03:58:30.876Z,102982.50
2023-01-29T04:03:39.786Z,102982.31
2023-01-29T04:08:52.244Z,102986.44
2023-01-29T04:13:57.350Z,102984.31
2023-01-29T04:19:02.214Z,102975.78
2023-01-29T04:24:13.523Z,102962.66
2023-01-29T04:29:27.816Z,102963.53
2023-01-29T04:34:45.696Z,102953.94
2023-01-29T04:39:55.839Z,102961.56
2023-01-29T04:45:06.212Z,102938.66
2023-01-29T04:50:17.933Z,102950.44
2023-01-29T04:55:28.764Z,102950.44
2023-01-29T05:00:36.091Z,102936.66
2023-01-29T05:05:44.193Z,102936.81
2023-01-29T05:10:49.503Z,102928.44
2023-01-29T05:15:58.550Z,102912.41
2023-01-29T05:21:06.820Z,102908.59
2023-01-29T05:26:09.820Z,102913.47
2023-01-29T05:31:12.928Z,102910.13
2023-01-29T05:36:17.333Z,102919.25
2023-01-29T05:41:21.144Z,102928.28
2023-01-29T05:46:24.166Z,102930.72
2023-01-29T05:51:28.660Z,102926.66
2023-01-29T05:56:31.660Z,102917.34
2023-01-29T06:01:34.775Z,102928.16
2023-01-29T06:06:39.231Z,102927.25
2023-01-29T06:11:42.180Z,102928.94
2023-01-29T06:16:45.232Z,102917.66
2023-01-29T06:21:49.654Z,102903.75
2023-01-29T06:26:52.703Z,102899.19
2023-01-29T06:31:55.842Z,102893.69
2023-01-29T06:37:00.189Z,102877.81
2023-01-29T06:42:03.191Z,102898.69
2023-01-29T06:47:06.307Z,102897.81
2023-01-29T06:52:10.648Z,102899.63
2023-01-29T06:57:13.631Z,102892.91
2023-01-29T07:02:16.993Z,102892.63
2023-01-29T07:07:21.389Z,102897.81
2023-01-29T07:12:24.366Z,102901.28
2023-01-29T07:17:27.441Z,102892.63
2023-01-29T07:22:31.882Z,102889.56
2023-01-29T07:27:34.891Z,102890.31
2023-01-29T07:32:37.875Z,102885.44
2023-01-29T07:37:42.297Z,102883.00
2023-01-29T07:42:45.595Z,102886.06
2023-01-29T07:47:53.479Z,102882.25
2023-01-29T07:52:58.068Z,102892.19
2023-01-29T07:58:03.119Z,102885.47
2023-01-29T08:03:08.460Z,102854.78
2023-01-29T08:08:13.467Z,102871.44
2023-01-29T08:13:16.549Z,102862.09
2023-01-29T08:18:19.515Z,102853.13
2023-01-29T08:23:23.954Z,102861.19
2023-01-29T08:28:26.941Z,102852.22
2023-01-29T08:33:38.319Z,102832.34
2023-01-29T08:38:43.370Z,102824.22
2023-01-29T08:43:46.678Z,102834.94
2023-01-29T08:48:49.692Z,102839.50
2023-01-29T08:53:56.859Z,102832.63
2023-01-29T08:59:00.007Z,102834.16
2023-01-29T09:04:03.010Z,102824.38
2023-01-29T09:09:08.271Z,102813.22
2023-01-29T09:14:12.471Z,102812.75
2023-01-29T09:19:15.484Z,102815.97
2023-01-29T09:24:19.780Z,102822.19
2023-01-29T09:29:22.868Z,102819.56
2023-01-29T09:34:25.847Z,102821.38
2023-01-29T09:39:30.261Z,102805.16
2023-01-29T09:44:50.050Z,102809.97
2023-01-29T09:49:58.030Z,102823.88
2023-01-29T09:55:08.189Z,102819.72
2023-01-29T10:00:16.767Z,102821.28
2023-01-29T10:05:43.945Z,102805.16
2023-01-29T10:10:52.872Z,102805.75
2023-01-29T10:16:16.459Z,102789.34
2023-01-29T10:21:33.362Z,102784.50
2023-01-29T10:26:38.706Z,102777.69
2023-01-29T10:31:42.160Z,102782.94
2023-01-29T10:36:47.242Z,102780.31
2023-01-29T10:42:03.879Z,102778.22
2023-01-29T10:47:24.871Z,102771.28
2023-01-29T10:52:40.246Z,102767.91
2023-01-29T10:57:57.698Z,102756.22
2023-01-29T11:03:26.452Z,102747.75
2023-01-29T11:08:35.814Z,102721.16
2023-01-29T11:13:43.972Z,102714.78
2023-01-29T11:18:51.997Z,102712.94
2023-01-29T11:24:12.798Z,102717.22
2023-01-29T11:29:33.936Z,102712.94
2023-01-29T11:34:58.122Z,102711.38
2023-01-29T11:40:01.325Z,102711.81
2023-01-29T11:45:27.359Z,102697.09
2023-01-29T11:50:32.831Z,102689.75
2023-01-29T11:55:50.345Z,102690.53
2023-01-29T12:00:58.326Z,102686.66
2023-01-29T12:06:07.429Z,102680.00
2023-01-29T12:11:14.714Z,102679.09
2023-01-29T12:16:26.370Z,102658.59
2023-01-29T12:21:36.043Z,102647.50
2023-01-29T12:26:49.125Z,102631.88
2023-01-29T12:32:02.422Z,102624.34
2023-01-29T12:37:14.921Z,102614.97
2023-01-29T12:42:22.569Z,102607.72
2023-01-29T12:47:31.734Z,102593.38
2023-01-29T12:52:42.650Z,102591.53
2023-01-29T12:57:51.913Z,102566.53
2023-01-29T13:03:02.861Z,102555.72
2023-01-29T13:08:09.912Z,102548.59
2023-01-29T13:13:17.073Z,102530.75
2023-01-29T13:18:41.924Z,102501.56
2023-01-29T13:23:48.445Z,102485.13
2023-01-29T13:28:53.285Z,102473.00
2023-01-29T13:34:08.828Z,102477.19
2023-01-29T13:39:21.454Z,102465.72
2023-01-29T13:44:28.073Z,102466.63
2023-01-29T13:49:36.807Z,102466.38
2023-01-29T13:54:40.681Z,102456.22
2023-01-29T14:00:01.461Z,102458.41
2023-01-29T14:05:43.596Z,102455.28
2023-01-29T14:10:46.941Z,102447.47
2023-01-29T14:16:32.524Z,102430.53
2023-01-29T14:21:39.053Z,102438.47
2023-01-29T14:26:45.803Z,102432.34
2023-01-29T14:31:53.359Z,102429.88
2023-01-29T14:37:02.637Z,102428.72
2023-01-29T14:42:17.791Z,102415.66
2023-01-29T14:47:22.985Z,102407.34
2023-01-29T14:52:33.762Z,102413.59
2023-01-29T14:57:38.826Z,102412.84
2023-01-29T15:02:45.592Z,102400.22
2023-01-29T15:07:56.094Z,102398.91
2023-01-29T15:13:05.675Z,102388.31
2023-01-29T15:18:14.380Z,102392.00
2023-01-29T15:23:29.459Z,102385.75
2023-01-29T15:28:34.597Z,102381.09
2023-01-29T15:33:38.853Z,102370.78
2023-01-29T15:38:43.384Z,102365.03
2023-01-29T15:43:48.499Z,102354.25
2023-01-29T15:48:52.788Z,102351.03
2023-01-29T15:53:59.750Z,102356.22
2023-01-29T15:59:09.378Z,102349.22
2023-01-29T16:04:16.318Z,102348.81
2023-01-29T16:09:23.705Z,102348.41
2023-01-29T16:14:28.472Z,102353.91
2023-01-29T16:19:31.663Z,102349.34
2023-01-29T16:24:38.063Z,102351.13
2023-01-29T16:29:41.204Z,102361.81
2023-01-29T16:34:48.071Z,102355.53
2023-01-29T16:39:53.576Z,102358.41
2023-01-29T16:45:02.089Z,102350.88
2023-01-29T16:50:27.150Z,102333.31
2023-01-29T16:55:40.423Z,102334.22
2023-01-29T17:00:46.534Z,102319.38
2023-01-29T17:05:51.006Z,102302.75
2023-01-29T17:10:55.474Z,102309.38
2023-01-29T17:16:02.803Z,102316.25
2023-01-29T17:21:06.102Z,102316.91
2023-01-29T17:26:13.469Z,102296.63
2023-01-29T17:31:16.568Z,102295.31
2023-01-29T17:36:20.044Z,102294.91
2023-01-29T17:41:28.387Z,102296.09
2023-01-29T17:46:31.353Z,102286.44
2023-01-29T17:51:34.318Z,102288.28
2023-01-29T17:56:38.719Z,102283.72
2023-01-29T18:01:41.707Z,102273.44
2023-01-29T18:06:46.389Z,102268.38
2023-01-29T18:11:51.594Z,102258.50
2023-01-29T18:16:57.141Z,102249.91
2023-01-29T18:22:00.738Z,102239.50
2023-01-29T18:27:05.515Z,102241.34
2023-01-29T18:32:08.516Z,102239.78
2023-01-29T18:37:13.028Z,102224.16
2023-01-29T18:42:18.183Z,102228.59
2023-01-29T18:47:21.217Z,102210.91
2023-01-29T18:52:24.240Z,102204.28
2023-01-29T18:58:26.830Z,102190.34
2023-01-29T19:02:52.032Z,102182.41
2023-01-29T19:07:55.314Z,102172.78
2023-01-29T19:12:59.880Z,102154.44
2023-01-29T19:18:04.237Z,102144.03
2023-01-29T19:23:07.336Z,102152.38
2023-01-29T19:28:11.883Z,102125.47
2023-01-29T19:33:15.011Z,102123.88
2023-01-29T19:38:21.179Z,102110.75
2023-01-29T19:43:25.598Z,102110.09
2023-01-29T19:48:29.324Z,102122.97
2023-01-29T19:53:32.571Z,102130.25
2023-01-29T19:58:37.513Z,102118.28
2023-01-29T20:03:41.967Z,102099.31
2023-01-29T20:08:46.715Z,102104.75
2023-01-29T20:13:53.455Z,102120.38
2023-01-29T20:19:13.667Z,102119.06
2023-01-29T20:24:17.782Z,102092.38
2023-01-29T20:29:22.668Z,102103.19
2023-01-29T20:34:25.687Z,102094.19
2023-01-29T20:39:28.866Z,102083.38
2023-01-29T20:44:33.342Z,102073.09
2023-01-29T20:49:36.444Z,102089.88
2023-01-29T20:54:40.229Z,102092.59
2023-01-29T20:59:45.139Z,102088.44
2023-01-29T21:04:48.084Z,102103.25
2023-01-29T21:09:50.978Z,102060.34
2023-01-29T21:14:55.273Z,102079.31
2023-01-29T21:19:58.272Z,102060.00
2023-01-29T21:25:01.284Z,102085.63
2023-01-29T21:30:07.657Z,102096.28
2023-01-29T21:35:11.347Z,102110.56
2023-01-29T21:40:14.598Z,102088.16
2023-01-29T21:45:19.899Z,102053.78
2023-01-29T21:50:23.012Z,102062.88
2023-01-29T21:55:26.298Z,102039.78
2023-01-29T22:00:30.551Z,101991.47
2023-01-29T22:05:33.663Z,101965.56
2023-01-29T22:10:36.745Z,101945.31
2023-01-29T22:15:43.737Z,101947.34
2023-01-29T22:20:46.746Z,101973.63
2023-01-29T22:25:50.060Z,101965.81
2023-01-29T22:30:54.485Z,101965.59
2023-01-29T22:35:57.974Z,101979.78
2023-01-29T22:41:01.960Z,101977.41
2023-01-29T22:46:09.713Z,101975.16
2023-01-29T22:51:13.923Z,101974.47
2023-01-29T22:56:17.389Z,101921.44
2023-01-29T23:01:23.336Z,101919.44
2023-01-29T23:06:26.451Z,101925.78
2023-01-29T23:11:29.425Z,101918.75
2023-01-29T23:16:34.032Z,101917.63
2023-01-29T23:21:37.081Z,101886.66
2023-01-29T23:26:57.605Z,101886.09
2023-01-29T23:32:01.899Z,101876.91
2023-01-29T23:37:05.111Z,101862.72
2023-01-29T23:42:08.146Z,101861.34
2023-01-29T23:47:12.631Z,101858.41
2023-01-29T23:52:18.725Z,101859.56
2023-01-29T23:57:21.761Z,101850.66
